Time;durP1;ratioP1;P1;durP2;ratioP2;P2;SDS_P1;SDS_P2;PMS_P1;PMS_P2;Temp;Humidity;BMP_temperature;BMP_pressure;BME280_temperature;BME280_humidity;BME280_pressure;Samples;Min_cycle;Max_cycle;Signal;HPM_P1;HPM_P2
2022/10/23 00:00:26;;;;;;;15.48;9.35;;;;;;;9.68;100.00;101363.72;1026582;28;20314;-82
2022/10/23 00:00:58;;;;;;;9.55;8.43;;;;;;;9.67;100.00;101361.28;1030206;28;20348;-83
2022/10/23 00:01:34;;;;;;;12.63;9.90;;;;;;;9.67;100.00;101359.44;1034745;28;20293;-82
2022/10/23 00:02:06;;;;;;;8.70;7.78;;;;;;;9.68;100.00;101368.22;1035602;28;20644;-83
2022/10/23 00:02:37;;;;;;;11.32;7.95;;;;;;;9.67;100.00;101361.28;1031441;28;20304;-83
2022/10/23 00:03:09;;;;;;;8.57;7.60;;;;;;;9.67;100.00;101363.94;1032462;28;20297;-82
2022/10/23 00:03:41;;;;;;;9.25;8.35;;;;;;;9.67;100.00;101363.94;1031662;28;20308;-82
2022/10/23 00:04:16;;;;;;;8.63;7.38;;;;;;;9.67;100.00;101359.44;1026913;28;20297;-82
2022/10/23 00:04:51;;;;;;;18.67;11.05;;;;;;;9.69;100.00;101360.06;1020610;29;20718;-83
2022/10/23 00:05:23;;;;;;;11.15;8.57;;;;;;;9.67;100.00;101358.63;1025243;28;20800;-82
2022/10/23 00:05:54;;;;;;;12.57;8.35;;;;;;;9.67;100.00;101361.28;1032660;28;20297;-83
2022/10/23 00:06:27;;;;;;;13.32;8.60;;;;;;;9.67;100.00;101353.28;1033924;28;20289;-83
2022/10/23 00:06:58;;;;;;;13.02;10.30;;;;;;;9.68;100.00;101361.06;1036136;28;20386;-83
2022/10/23 00:07:30;;;;;;;9.40;8.30;;;;;;;9.69;100.00;101361.91;1035384;28;20448;-83
2022/10/23 00:08:02;;;;;;;12.15;8.85;;;;;;;9.70;100.00;101358.22;1031427;28;20784;-82
2022/10/23 00:08:34;;;;;;;13.50;9.57;;;;;;;9.69;100.00;101359.22;1031251;28;20308;-83
2022/10/23 00:09:07;;;;;;;16.50;8.98;;;;;;;9.69;100.00;101361.91;1031026;28;20310;-83
2022/10/23 00:09:38;;;;;;;18.90;9.07;;;;;;;9.70;100.00;101363.53;1028219;28;20389;-83
2022/10/23 00:10:10;;;;;;;11.32;8.40;;;;;;;9.68;100.00;101360.25;1031465;28;20301;-83
2022/10/23 00:10:42;;;;;;;16.00;8.93;;;;;;;9.68;100.00;101368.22;1031904;28;20308;-82
2022/10/23 00:11:17;;;;;;;8.35;7.63;;;;;;;9.67;100.00;101369.25;1032195;28;20297;-83
2022/10/23 00:11:50;;;;;;;13.40;8.25;;;;;;;9.62;100.00;101367.19;1031568;28;20301;-82
2022/10/23 00:12:21;;;;;;;12.25;9.63;;;;;;;9.59;100.00;101375.56;1031455;28;20426;-83
2022/10/23 00:12:53;;;;;;;11.75;7.82;;;;;;;9.58;100.00;101361.41;1032142;28;20384;-82
2022/10/23 00:13:24;;;;;;;13.95;8.38;;;;;;;9.59;100.00;101367.59;1032268;28;20293;-83
2022/10/23 00:13:58;;;;;;;12.77;8.43;;;;;;;9.59;100.00;101368.41;1035353;28;20458;-83
2022/10/23 00:14:30;;;;;;;9.02;8.05;;;;;;;9.59;100.00;101368.41;1031154;28;20302;-83
2022/10/23 00:15:02;;;;;;;12.82;8.05;;;;;;;9.63;100.00;101368.81;1032338;28;20297;-83
2022/10/23 00:15:35;;;;;;;13.15;10.00;;;;;;;9.65;100.00;101371.28;1027419;28;20298;-82
2022/10/23 00:16:07;;;;;;;12.02;8.98;;;;;;;9.68;100.00;101370.91;1028095;28;20341;-83
2022/10/23 00:16:39;;;;;;;14.32;8.50;;;;;;;9.67;100.00;101375.41;1026920;28;20715;-82
2022/10/23 00:17:11;;;;;;;12.52;8.07;;;;;;;9.67;100.00;101371.91;1024467;28;20291;-83
2022/10/23 00:17:43;;;;;;;10.25;8.25;;;;;;;9.65;100.00;101374.78;1019161;29;20308;-83
2022/10/23 00:18:15;;;;;;;11.02;9.43;;;;;;;9.64;100.00;101375.78;1019122;29;20318;-82
2022/10/23 00:18:46;;;;;;;11.63;8.65;;;;;;;9.64;100.00;101374.97;1024372;28;20804;-83
2022/10/23 00:19:18;;;;;;;11.73;9.05;;;;;;;9.61;100.00;101376.19;1027814;28;20293;-82
2022/10/23 00:19:49;;;;;;;12.68;7.90;;;;;;;9.62;100.00;101374.34;1023774;28;20797;-83
2022/10/23 00:20:21;;;;;;;16.00;9.02;;;;;;;9.59;100.00;101371.06;1021886;29;20334;-82
2022/10/23 00:20:53;;;;;;;12.82;8.20;;;;;;;9.58;100.00;101374.72;1021024;29;20853;-82
2022/10/23 00:21:24;;;;;;;11.65;8.82;;;;;;;9.57;100.00;101373.06;1023163;28;20307;-83
2022/10/23 00:21:56;;;;;;;12.50;8.85;;;;;;;9.57;100.00;101370.41;1028296;28;20716;-82
2022/10/23 00:22:27;;;;;;;13.73;8.73;;;;;;;9.59;100.00;101373.72;1030989;28;20699;-83
2022/10/23 00:22:59;;;;;;;13.93;9.70;;;;;;;9.59;100.00;101368.41;1027103;28;20656;-83
2022/10/23 00:23:31;;;;;;;12.65;9.38;;;;;;;9.60;100.00;101363.91;1027153;28;20312;-83
2022/10/23 00:24:02;;;;;;;10.70;9.02;;;;;;;9.63;100.00;101362.69;1019830;29;20608;-83
2022/10/23 00:24:34;;;;;;;11.18;9.25;;;;;;;9.66;100.00;101367.63;1015713;29;20300;-83
2022/10/23 00:25:07;;;;;;;22.00;9.75;;;;;;;9.64;100.00;101364.34;1015912;29;20304;-83
2022/10/23 00:25:39;;;;;;;18.13;9.38;;;;;;;9.65;100.00;101361.47;1019224;28;20308;-82
2022/10/23 00:26:14;;;;;;;9.00;8.10;;;;;;;9.63;100.00;101354.72;1028114;28;20765;-83
2022/10/23 00:26:48;;;;;;;14.10;8.93;;;;;;;9.62;100.00;101361.88;1028519;28;20302;-82
2022/10/23 00:27:20;;;;;;;19.25;9.65;;;;;;;9.62;100.00;101358.38;1032605;28;20301;-83
2022/10/23 00:27:51;;;;;;;11.05;9.30;;;;;;;9.64;100.00;101359.00;1031325;28;20301;-83
2022/10/23 00:28:23;;;;;;;18.20;9.45;;;;;;;9.64;100.00;101361.66;1024728;28;20679;-82
2022/10/23 00:28:54;;;;;;;13.68;9.50;;;;;;;9.64;100.00;101353.69;1023312;29;20298;-83
2022/10/23 00:29:27;;;;;;;19.23;10.82;;;;;;;9.64;100.00;101356.34;1019518;29;20367;-82
2022/10/23 00:29:59;;;;;;;13.13;9.68;;;;;;;9.65;100.00;101355.34;1020756;28;20307;-83
2022/10/23 00:30:31;;;;;;;15.57;9.95;;;;;;;9.66;100.00;101359.63;1023332;29;20294;-83
2022/10/23 00:31:04;;;;;;;13.63;10.38;;;;;;;9.67;100.00;101358.63;1016728;29;20535;-83
2022/10/23 00:31:36;;;;;;;15.18;9.52;;;;;;;9.64;100.00;101356.34;1016171;29;20295;-83
2022/10/23 00:32:07;;;;;;;10.82;9.20;;;;;;;9.60;100.00;101350.59;1021685;28;20370;-82
2022/10/23 00:32:39;;;;;;;13.73;10.18;;;;;;;9.60;100.00;101355.94;1023236;28;20303;-82
2022/10/23 00:33:10;;;;;;;15.65;10.27;;;;;;;9.58;100.00;101350.78;1024092;28;20299;-82
2022/10/23 00:33:42;;;;;;;13.68;8.88;;;;;;;9.56;100.00;101358.13;1023327;29;20299;-82
2022/10/23 00:34:14;;;;;;;19.27;9.73;;;;;;;9.55;100.00;101356.50;1023816;28;20702;-83
2022/10/23 00:34:45;;;;;;;15.07;8.93;;;;;;;9.52;100.00;101356.88;1026906;28;20301;-82
2022/10/23 00:35:17;;;;;;;17.98;9.93;;;;;;;9.52;100.00;101358.72;1023060;28;20295;-83
2022/10/23 00:35:49;;;;;;;11.05;8.82;;;;;;;9.49;100.00;101351.97;1023132;28;20307;-83
2022/10/23 00:36:20;;;;;;;17.83;10.13;;;;;;;9.52;100.00;101364.88;1014924;29;20315;-83
2022/10/23 00:36:52;;;;;;;15.70;9.98;;;;;;;9.56;100.00;101355.47;1016266;29;20291;-83
2022/10/23 00:37:23;;;;;;;21.15;11.32;;;;;;;9.58;100.00;101353.44;1019825;28;20385;-82
2022/10/23 00:37:55;;;;;;;15.50;11.05;;;;;;;9.62;100.00;101355.72;1026802;28;20314;-83
2022/10/23 00:38:27;;;;;;;14.55;11.10;;;;;;;9.62;100.00;101355.72;1035464;28;20288;-83
2022/10/23 00:38:58;;;;;;;14.25;11.73;;;;;;;9.66;100.00;101356.97;1031539;28;20350;-82
2022/10/23 00:39:30;;;;;;;17.20;11.75;;;;;;;9.66;100.00;101356.97;1027732;28;20910;-83
2022/10/23 00:40:03;;;;;;;14.55;10.50;;;;;;;9.69;100.00;101351.25;1031337;28;20377;-82
2022/10/23 00:40:35;;;;;;;17.20;10.57;;;;;;;9.70;100.00;101348.41;1027427;28;20664;-83
2022/10/23 00:41:09;;;;;;;17.10;13.00;;;;;;;9.74;100.00;101354.13;1022925;29;20334;-82
2022/10/23 00:41:41;;;;;;;20.85;11.95;;;;;;;9.77;100.00;101353.75;1021734;28;20402;-83
2022/10/23 00:42:18;;;;;;;15.57;11.15;;;;;;;9.79;100.00;101346.38;1028720;28;20792;-83
2022/10/23 00:42:50;;;;;;;21.17;11.45;;;;;;;9.77;100.00;101345.75;1024733;28;20441;-83
2022/10/23 00:43:24;;;;;;;16.52;12.43;;;;;;;9.77;100.00;101337.78;1027638;28;20314;-83
2022/10/23 00:44:01;;;;;;;15.82;12.18;;;;;;;9.77;100.00;101337.78;1026711;28;20306;-83
2022/10/23 00:44:32;;;;;;;15.25;11.15;;;;;;;9.76;100.00;101336.97;1024775;28;20294;-82
2022/10/23 00:45:09;;;;;;;21.42;12.82;;;;;;;9.77;100.00;101333.28;1019832;29;20299;-82
2022/10/23 00:45:40;;;;;;;19.38;11.45;;;;;;;9.78;100.00;101339.41;1023578;28;20307;-82
2022/10/23 00:46:12;;;;;;;19.90;12.20;;;;;;;9.80;100.00;101337.38;1027876;28;20340;-82
2022/10/23 00:46:45;;;;;;;17.42;12.20;;;;;;;9.84;100.00;101349.25;1031280;28;20874;-82
2022/10/23 00:47:17;;;;;;;17.17;12.00;;;;;;;9.79;100.00;101341.06;1031583;28;20301;-82
2022/10/23 00:47:48;;;;;;;18.95;11.80;;;;;;;9.75;100.00;101345.97;1031243;28;20301;-82
2022/10/23 00:48:20;;;;;;;18.45;13.05;;;;;;;9.74;100.00;101340.84;1032057;28;20308;-82
2022/10/23 00:48:52;;;;;;;17.80;12.13;;;;;;;9.73;100.00;101341.84;1031028;28;20309;-83
2022/10/23 00:49:24;;;;;;;14.20;11.07;;;;;;;9.69;100.00;101341.44;1028035;28;20342;-82
2022/10/23 00:49:56;;;;;;;13.73;11.32;;;;;;;9.71;100.00;101343.91;1027120;28;20753;-82
2022/10/23 00:50:30;;;;;;;17.23;11.55;;;;;;;9.71;100.00;101343.91;1018995;29;20310;-83
2022/10/23 00:51:02;;;;;;;15.45;11.27;;;;;;;9.69;100.00;101340.63;1016251;29;20300;-82
2022/10/23 00:51:46;;;;;;;16.38;10.20;;;;;;;9.66;100.00;101347.16;1019543;29;20288;-82
2022/10/23 00:52:18;;;;;;;16.65;10.45;;;;;;;9.62;100.00;101351.22;1021205;28;20314;-82
2022/10/23 00:52:52;;;;;;;16.45;9.88;;;;;;;9.55;100.00;101351.16;1025324;28;20665;-82
2022/10/23 00:53:23;;;;;;;15.25;10.55;;;;;;;9.55;100.00;101356.50;1025750;28;20306;-83
2022/10/23 00:53:57;;;;;;;14.23;9.90;;;;;;;9.53;100.00;101350.56;1026760;28;20298;-82
2022/10/23 00:54:49;;;;;;;13.82;9.85;;;;;;;9.54;100.00;101354.03;1030886;28;20304;-83
2022/10/23 00:55:22;;;;;;;18.25;9.95;;;;;;;9.49;100.00;101351.97;1030838;28;20310;-83
2022/10/23 00:55:56;;;;;;;19.92;11.95;;;;;;;9.49;100.00;101351.16;1027055;28;20302;-83
2022/10/23 00:56:30;;;;;;;15.82;10.43;;;;;;;9.48;100.00;101352.97;1026755;28;20393;-83
2022/10/23 00:57:03;;;;;;;15.57;10.50;;;;;;;9.48;100.00;101354.81;1027114;28;20306;-83
2022/10/23 00:57:40;;;;;;;20.83;10.95;;;;;;;9.48;100.00;101355.63;1024627;28;20309;-82
2022/10/23 00:58:13;;;;;;;21.63;10.75;;;;;;;9.47;100.00;101353.19;1025539;28;20587;-82
2022/10/23 00:58:45;;;;;;;14.00;9.77;;;;;;;9.46;100.00;101360.34;1024738;28;20676;-82
2022/10/23 00:59:16;;;;;;;15.32;9.98;;;;;;;9.46;100.00;101359.53;1027804;28;20315;-82
2022/10/23 00:59:48;;;;;;;12.68;10.52;;;;;;;9.42;100.00;101353.78;1024010;28;20318;-82
2022/10/23 01:00:39;;;;;;;16.10;10.48;;;;;;;9.41;100.00;101357.44;1025786;28;20342;-83
2022/10/23 01:01:19;;;;;;;10.10;8.18;;;;;;;9.32;100.00;101350.66;1023263;28;20816;-82
2022/10/23 01:01:51;;;;;;;12.27;8.82;;;;;;;9.30;100.00;101353.47;1027098;28;20177;-82
2022/10/23 01:02:23;;;;;;;9.85;8.82;;;;;;;9.30;100.00;101350.00;1027333;28;20065;-82
2022/10/23 01:02:55;;;;;;;13.77;10.57;;;;;;;9.30;100.00;101350.81;1028014;28;20307;-82
2022/10/23 01:03:27;;;;;;;15.38;9.98;;;;;;;9.30;100.00;101352.66;1027134;28;20384;-82
2022/10/23 01:04:00;;;;;;;11.95;9.00;;;;;;;9.25;100.00;101352.44;1026949;28;20313;-82
2022/10/23 01:04:33;;;;;;;15.82;9.50;;;;;;;9.24;100.00;101348.13;1023183;28;20836;-82
2022/10/23 01:05:07;;;;;;;11.18;8.95;;;;;;;9.24;100.00;101348.94;1023440;28;20295;-82
2022/10/23 01:06:03;;;;;;;15.68;9.90;;;;;;;9.22;100.00;101350.16;1022778;28;20311;-82
2022/10/23 01:06:58;;;;;;;19.23;9.90;;;;;;;9.18;100.00;101349.72;1016884;29;20296;-83
2022/10/23 01:07:55;;;;;;;10.05;7.93;;;;;;;9.15;100.00;101354.63;1021556;28;20402;-82
2022/10/23 01:08:32;;;;;;;12.93;7.85;;;;;;;9.18;100.00;101341.75;1026954;28;20305;-82
2022/10/23 01:09:14;;;;;;;10.32;7.78;;;;;;;9.19;100.00;101346.06;1027376;28;20305;-82
2022/10/23 01:10:09;;;;;;;9.90;7.75;;;;;;;9.19;100.00;101353.22;1030144;28;20356;-82
2022/10/23 01:10:47;;;;;;;12.18;8.32;;;;;;;9.17;100.00;101347.28;1025208;28;20389;-83
2022/10/23 01:11:25;;;;;;;17.30;8.93;;;;;;;9.18;100.00;101348.91;1023448;28;20682;-83
2022/10/23 01:12:14;;;;;;;12.90;8.27;;;;;;;9.20;100.00;101349.53;1022652;28;20306;-82
2022/10/23 01:12:49;;;;;;;14.68;8.73;;;;;;;9.19;100.00;101346.06;1020088;29;20337;-83
2022/10/23 01:13:53;;;;;;;11.77;7.82;;;;;;;9.20;100.00;101346.88;1022264;28;20357;-82
2022/10/23 01:14:31;;;;;;;19.08;8.20;;;;;;;9.20;100.00;101346.88;1024233;28;20307;-82
2022/10/23 01:15:04;;;;;;;12.05;7.82;;;;;;;9.22;100.00;101344.84;1022134;28;20304;-82
2022/10/23 01:15:58;;;;;;;13.30;8.95;;;;;;;9.25;100.00;101350.59;1022769;28;20303;-82
2022/10/23 01:16:45;;;;;;;13.57;9.45;;;;;;;9.28;100.00;101346.72;1019154;29;20304;-83
2022/10/23 01:17:22;;;;;;;13.63;8.45;;;;;;;9.28;100.00;101349.38;1024308;28;20773;-83
2022/10/23 01:18:06;;;;;;;11.80;8.30;;;;;;;9.26;100.00;101340.78;1023407;29;20306;-83
2022/10/23 01:18:52;;;;;;;15.90;8.65;;;;;;;9.28;100.00;101338.75;1026889;28;20381;-83
2022/10/23 01:19:37;;;;;;;17.40;8.43;;;;;;;9.29;100.00;101345.69;1022744;28;20667;-82
2022/10/23 01:20:26;;;;;;;15.90;9.05;;;;;;;9.33;100.00;101343.50;1027428;28;20320;-83
2022/10/23 01:21:17;;;;;;;14.73;9.48;;;;;;;9.31;100.00;101335.69;1027085;28;20681;-83
2022/10/23 01:22:22;;;;;;;15.38;9.38;;;;;;;9.34;100.00;101337.16;1024136;28;20401;-82
2022/10/23 01:23:16;;;;;;;15.00;9.38;;;;;;;9.36;100.00;101337.78;1023487;28;20502;-83
2022/10/23 01:24:11;;;;;;;12.95;8.40;;;;;;;9.33;100.00;101341.66;1027068;28;20662;-82
2022/10/23 01:24:56;;;;;;;10.82;7.65;;;;;;;9.32;100.00;101333.88;1027142;28;20047;-82
2022/10/23 01:26:06;;;;;;;9.45;7.78;;;;;;;9.30;100.00;101334.06;1021726;28;20311;-82
2022/10/23 01:26:43;;;;;;;15.43;9.98;;;;;;;9.32;100.00;101329.38;1024248;28;20295;-83
2022/10/23 01:27:32;;;;;;;16.13;8.90;;;;;;;9.34;100.00;101327.34;1023776;28;20830;-82
2022/10/23 01:28:09;;;;;;;23.13;11.48;;;;;;;9.34;100.00;101335.34;1023026;29;20089;-83
2022/10/23 01:28:49;;;;;;;17.20;9.00;;;;;;;9.33;100.00;101333.69;1018609;29;20805;-83
2022/10/23 01:29:36;;;;;;;9.40;8.32;;;;;;;9.31;100.00;101333.03;1023066;29;20307;-83
2022/10/23 01:30:13;;;;;;;13.65;8.80;;;;;;;9.31;100.00;101322.41;1023062;28;20360;-82
2022/10/23 01:31:07;;;;;;;13.23;8.32;;;;;;;9.27;100.00;101332.59;1021736;28;20300;-82
2022/10/23 01:31:48;;;;;;;10.88;7.28;;;;;;;9.24;100.00;101332.19;1019284;29;20351;-82
2022/10/23 01:32:27;;;;;;;12.65;7.82;;;;;;;9.24;100.00;101326.88;1019710;28;20295;-82
2022/10/23 01:33:30;;;;;;;10.95;9.38;;;;;;;9.23;100.00;101341.16;1019331;29;20414;-83
2022/10/23 01:34:11;;;;;;;17.98;7.70;;;;;;;9.18;100.00;101332.97;1006708;29;20305;-82
2022/10/23 01:34:49;;;;;;;14.40;8.57;;;;;;;9.14;100.00;101342.34;1014439;29;20375;-82
2022/10/23 01:35:25;;;;;;;14.68;8.20;;;;;;;9.12;100.00;101333.75;1014018;29;20831;-83
2022/10/23 01:36:05;;;;;;;12.25;8.55;;;;;;;9.13;100.00;101335.41;1015241;29;20308;-83
2022/10/23 01:36:40;;;;;;;13.27;8.40;;;;;;;9.12;100.00;101333.75;1010874;29;20340;-82
2022/10/23 01:37:13;;;;;;;13.88;9.02;;;;;;;9.11;100.00;101332.13;1013899;29;20750;-83
2022/10/23 01:37:50;;;;;;;9.57;7.75;;;;;;;9.07;100.00;101331.69;1012291;29;20309;-82
2022/10/23 01:38:37;;;;;;;15.05;8.20;;;;;;;9.06;100.00;101323.91;1015344;29;20315;-83
2022/10/23 01:39:21;;;;;;;18.08;6.95;;;;;;;9.05;100.00;101322.25;1019145;28;20427;-83
2022/10/23 01:39:55;;;;;;;11.07;6.45;;;;;;;9.05;100.00;101333.72;1022874;28;20294;-83
2022/10/23 01:40:36;;;;;;;12.48;7.82;;;;;;;9.08;100.00;101324.53;1029012;28;20310;-82
2022/10/23 01:41:31;;;;;;;17.80;8.40;;;;;;;9.08;100.00;101322.69;1017292;29;20342;-83
2022/10/23 01:42:10;;;;;;;10.30;7.97;;;;;;;9.09;100.00;101329.66;1023735;28;20047;-82
2022/10/23 01:42:46;;;;;;;11.65;7.95;;;;;;;9.09;100.00;101324.34;1023976;28;20374;-82
2022/10/23 01:43:30;;;;;;;11.00;7.68;;;;;;;9.10;100.00;101320.66;1031009;28;20305;-83
2022/10/23 01:44:25;;;;;;;9.05;7.30;;;;;;;9.12;100.00;101320.47;1027092;28;20317;-83
2022/10/23 01:45:06;;;;;;;19.15;7.68;;;;;;;9.10;100.00;101319.84;1027992;28;20401;-83
2022/10/23 01:45:50;;;;;;;11.27;7.30;;;;;;;9.04;100.00;101318.78;1021319;29;20311;-82
2022/10/23 01:46:24;;;;;;;9.45;6.28;;;;;;;9.05;100.00;101322.25;1019332;29;20825;-83
2022/10/23 01:46:56;;;;;;;9.68;7.65;;;;;;;9.05;100.00;101316.94;1022626;28;20310;-82
2022/10/23 01:47:33;;;;;;;19.92;7.15;;;;;;;9.05;100.00;101316.94;1022159;29;20409;-83
2022/10/23 01:48:12;;;;;;;11.60;7.03;;;;;;;9.06;100.00;101318.59;1019171;29;20317;-83
2022/10/23 01:48:50;;;;;;;13.88;8.02;;;;;;;9.06;100.00;101310.63;1020117;28;20307;-83
2022/10/23 01:49:24;;;;;;;13.25;8.00;;;;;;;9.07;100.00;101315.75;1019131;29;20299;-83
2022/10/23 01:50:00;;;;;;;22.30;6.75;;;;;;;9.08;100.00;101316.56;1018934;29;20318;-82
2022/10/23 01:50:32;;;;;;;13.35;7.72;;;;;;;9.08;100.00;101313.91;1018838;29;20374;-83
2022/10/23 01:51:08;;;;;;;50.40;9.05;;;;;;;9.07;100.00;101314.91;1019022;29;20837;-83
2022/10/23 01:51:44;;;;;;;14.77;6.72;;;;;;;9.08;100.00;101313.91;1022497;29;20302;-82
2022/10/23 01:52:17;;;;;;;8.57;6.95;;;;;;;9.10;100.00;101317.19;1021029;29;20303;-82
2022/10/23 01:52:51;;;;;;;14.82;8.77;;;;;;;9.10;100.00;101311.88;1018869;29;20625;-83
2022/10/23 01:53:25;;;;;;;12.48;7.10;;;;;;;9.11;100.00;101316.16;1024359;28;20373;-82
2022/10/23 01:53:59;;;;;;;10.85;7.50;;;;;;;9.09;100.00;101312.88;1024739;28;20302;-83
2022/10/23 01:54:34;;;;;;;9.25;7.30;;;;;;;9.08;100.00;101311.25;1019226;29;20307;-82
2022/10/23 01:55:09;;;;;;;10.52;8.13;;;;;;;9.07;100.00;101314.91;1012505;29;20388;-83
2022/10/23 01:55:41;;;;;;;15.48;7.57;;;;;;;9.07;100.00;101312.25;1011186;29;20313;-83
2022/10/23 01:56:31;;;;;;;15.25;7.80;;;;;;;9.06;100.00;101321.25;1014755;29;20369;-83
2022/10/23 01:57:06;;;;;;;12.07;7.82;;;;;;;9.06;100.00;101323.91;1023308;28;20302;-83
2022/10/23 01:57:39;;;;;;;20.13;8.85;;;;;;;9.05;100.00;101322.25;1022625;29;20805;-83
2022/10/23 01:58:12;;;;;;;11.05;8.00;;;;;;;9.03;100.00;101314.47;1022947;29;20579;-83
2022/10/23 01:58:47;;;;;;;8.80;6.70;;;;;;;9.02;100.00;101317.31;1026767;28;20310;-82
2022/10/23 01:59:22;;;;;;;10.75;6.60;;;;;;;8.99;100.00;101324.66;1019225;29;20299;-83
2022/10/23 02:00:02;;;;;;;7.45;5.88;;;;;;;8.97;100.00;101321.38;1019351;29;20303;-83
2022/10/23 02:00:38;;;;;;;10.75;8.15;;;;;;;8.96;100.00;101325.06;1022272;29;20382;-83
2022/10/23 02:01:10;;;;;;;12.07;7.00;;;;;;;8.95;100.00;101317.28;1022961;28;20062;-84
2022/10/23 02:01:53;;;;;;;22.00;8.35;;;;;;;8.92;100.00;101320.31;1019300;29;20735;-82
2022/10/23 02:02:25;;;;;;;17.48;8.65;;;;;;;8.94;100.00;101316.44;1018616;29;20322;-82
2022/10/23 02:02:57;;;;;;;10.02;6.95;;;;;;;8.95;100.00;101323.41;1018010;29;20386;-82
2022/10/23 02:03:36;;;;;;;11.38;7.78;;;;;;;8.92;100.00;101307.84;1018707;29;20299;-82
2022/10/23 02:04:12;;;;;;;12.18;7.47;;;;;;;8.91;100.00;101310.72;1014818;29;20849;-82
2022/10/23 02:04:52;;;;;;;10.60;7.95;;;;;;;8.90;100.00;101312.53;1015451;29;20326;-82
2022/10/23 02:05:26;;;;;;;11.95;7.28;;;;;;;8.91;100.00;101316.84;1022685;29;20305;-82
2022/10/23 02:05:58;;;;;;;16.88;7.80;;;;;;;8.90;100.00;101309.06;1016391;29;20047;-82
2022/10/23 02:06:30;;;;;;;13.27;9.52;;;;;;;8.87;100.00;101302.31;1022994;29;20306;-82
2022/10/23 02:07:02;;;;;;;12.80;7.22;;;;;;;8.88;100.00;101301.28;1019744;29;20296;-82
2022/10/23 02:07:34;;;;;;;9.73;7.35;;;;;;;8.90;100.00;101307.22;1019201;29;20872;-82
2022/10/23 02:08:06;;;;;;;10.77;7.03;;;;;;;8.90;100.00;101303.75;1021257;28;20669;-82
2022/10/23 02:08:38;;;;;;;15.80;7.15;;;;;;;8.92;100.00;101302.53;1020822;29;20419;-82
2022/10/23 02:09:10;;;;;;;8.90;7.22;;;;;;;8.93;100.00;101304.19;1019356;29;20299;-82
2022/10/23 02:09:42;;;;;;;10.77;8.18;;;;;;;8.93;100.00;101300.72;1016311;29;20312;-82
2022/10/23 02:10:14;;;;;;;11.02;8.43;;;;;;;8.92;100.00;101302.53;1019832;29;20299;-82
2022/10/23 02:10:50;;;;;;;9.55;7.35;;;;;;;8.93;100.00;101290.91;1023479;28;20319;-82
2022/10/23 02:11:22;;;;;;;12.93;8.52;;;;;;;8.96;100.00;101302.97;1028125;28;20318;-82
2022/10/23 02:11:58;;;;;;;10.77;8.23;;;;;;;9.00;100.00;101288.28;1031902;28;20300;-82
2022/10/23 02:12:32;;;;;;;33.08;8.27;;;;;;;9.00;100.00;101288.28;1028857;28;20477;-82
2022/10/23 02:13:08;;;;;;;20.55;7.75;;;;;;;9.01;100.00;101287.25;1026775;28;20408;-82
2022/10/23 02:13:50;;;;;;;12.68;8.15;;;;;;;9.02;100.00;101290.75;1027015;28;20302;-82
2022/10/23 02:14:34;;;;;;;14.48;8.73;;;;;;;9.03;100.00;101292.38;1022931;29;20303;-82
2022/10/23 02:15:13;;;;;;;10.85;6.85;;;;;;;9.02;100.00;101288.91;1026804;28;20312;-82
2022/10/23 02:15:48;;;;;;;23.15;8.23;;;;;;;8.98;100.00;101285.81;1022392;28;20458;-82
2022/10/23 02:16:22;;;;;;;28.25;8.57;;;;;;;8.98;100.00;101291.13;1026119;28;20688;-82
2022/10/23 02:17:01;;;;;;;15.35;7.68;;;;;;;8.99;100.00;101286.63;1028717;28;20372;-82
2022/10/23 02:17:50;;;;;;;16.02;7.40;;;;;;;8.96;100.00;101287.03;1026910;28;20810;-82
2022/10/23 02:18:50;;;;;;;16.65;8.45;;;;;;;8.97;100.00;101283.34;1031351;28;20289;-82
2022/10/23 02:19:43;;;;;;;9.38;7.32;;;;;;;8.98;100.00;101283.16;1027861;28;20697;-82
2022/10/23 02:20:28;;;;;;;17.23;7.80;;;;;;;9.01;100.00;101283.78;1027075;28;20827;-82
2022/10/23 02:21:06;;;;;;;12.48;8.55;;;;;;;9.04;100.00;101272.75;1028565;28;20298;-82
2022/10/23 02:21:50;;;;;;;12.05;7.47;;;;;;;9.07;100.00;101280.38;1034670;28;20311;-82
2022/10/23 02:22:42;;;;;;;12.32;8.23;;;;;;;9.08;100.00;101277.53;1033095;28;20383;-82
2022/10/23 02:23:42;;;;;;;25.75;9.20;;;;;;;9.07;100.00;101272.41;1029907;28;20297;-82
2022/10/23 02:24:17;;;;;;;12.70;8.13;;;;;;;9.03;100.00;101265.81;1029364;28;20305;-82
2022/10/23 02:24:56;;;;;;;13.77;9.13;;;;;;;9.01;100.00;101276.63;1029294;28;20429;-82
2022/10/23 02:25:34;;;;;;;17.10;9.10;;;;;;;9.02;100.00;101266.81;1026186;28;20901;-82
2022/10/23 02:26:15;;;;;;;20.20;9.15;;;;;;;8.99;100.00;101262.72;1025753;28;20365;-82
2022/10/23 02:26:56;;;;;;;12.23;7.65;;;;;;;8.99;100.00;101265.38;1018494;29;20315;-82
2022/10/23 02:27:33;;;;;;;13.10;7.82;;;;;;;8.99;100.00;101266.19;1022950;28;20653;-83
2022/10/23 02:28:07;;;;;;;13.05;8.55;;;;;;;9.01;100.00;101273.16;1018506;29;20292;-82
2022/10/23 02:28:49;;;;;;;14.50;9.13;;;;;;;9.02;100.00;101267.66;1027174;28;20298;-82
2022/10/23 02:29:30;;;;;;;21.23;9.32;;;;;;;9.03;100.00;101261.31;1026754;28;20054;-82
2022/10/23 02:30:06;;;;;;;16.67;8.35;;;;;;;9.03;100.00;101268.47;1034453;28;20336;-82
2022/10/23 02:30:40;;;;;;;12.80;9.00;;;;;;;9.03;100.00;101268.47;1025041;28;20765;-82
2022/10/23 02:31:16;;;;;;;12.88;8.88;;;;;;;9.04;100.00;101270.09;1025899;28;20325;-82
2022/10/23 02:31:48;;;;;;;18.55;8.60;;;;;;;9.04;100.00;101265.66;1022518;29;20852;-81
2022/10/23 02:32:23;;;;;;;10.95;7.85;;;;;;;9.03;100.00;101273.78;1020150;29;20814;-82
2022/10/23 02:32:56;;;;;;;18.20;7.85;;;;;;;8.99;100.00;101263.53;1018535;29;20299;-82
2022/10/23 02:33:28;;;;;;;21.42;9.25;;;;;;;8.97;100.00;101268.25;1019027;29;20308;-82
2022/10/23 02:33:59;;;;;;;13.90;7.57;;;;;;;8.95;100.00;101270.28;1019918;29;20824;-82
2022/10/23 02:34:31;;;;;;;14.25;7.75;;;;;;;8.94;100.00;101268.63;1019864;29;20330;-82
2022/10/23 02:35:03;;;;;;;12.95;7.55;;;;;;;8.94;100.00;101263.31;1019167;29;20382;-82
2022/10/23 02:35:35;;;;;;;10.35;7.68;;;;;;;8.94;100.00;101263.31;1018987;28;20303;-82
2022/10/23 02:36:21;;;;;;;23.33;8.55;;;;;;;8.92;100.00;101260.03;1025179;28;20368;-82
2022/10/23 02:36:53;;;;;;;34.05;7.95;;;;;;;8.89;100.00;101260.44;1025192;28;20310;-82
2022/10/23 02:37:25;;;;;;;26.10;7.55;;;;;;;8.88;100.00;101265.94;1017270;29;20304;-82
2022/10/23 02:37:58;;;;;;;11.57;6.88;;;;;;;8.88;100.00;101269.41;1018125;29;20334;-82
2022/10/23 02:38:39;;;;;;;15.70;7.65;;;;;;;8.86;100.00;101271.44;1019813;29;20375;-82
2022/10/23 02:39:10;;;;;;;16.33;7.03;;;;;;;8.86;100.00;101266.13;1017794;29;20315;-82
2022/10/23 02:39:42;;;;;;;10.85;7.18;;;;;;;8.85;100.00;101272.47;1018723;29;20299;-84
2022/10/23 02:40:14;;;;;;;12.88;7.20;;;;;;;8.87;100.00;101267.78;1023890;28;20306;-82
2022/10/23 02:40:48;;;;;;;11.32;7.53;;;;;;;8.88;100.00;101274.72;1022236;28;20326;-81
2022/10/23 02:41:30;;;;;;;12.45;8.15;;;;;;;8.87;100.00;101270.44;1019553;29;20682;-82
2022/10/23 02:42:16;;;;;;;9.77;6.20;;;;;;;8.89;100.00;101275.53;1023034;29;20306;-82
2022/10/23 02:42:57;;;;;;;15.27;6.13;;;;;;;8.90;100.00;101262.06;1026800;28;20054;-82
2022/10/23 02:43:31;;;;;;;;;;;;;;;8.93;100.00;101267.00;1033096;28;20785;-82
2022/10/23 02:44:21;;;;;;;69.55;9.52;;;;;;;8.95;100.00;101270.28;1025028;28;20380;-82
2022/10/23 02:45:10;;;;;;;16.77;7.40;;;;;;;8.99;100.00;101265.38;1018576;29;20330;-82
2022/10/23 02:46:07;;;;;;;27.30;7.90;;;;;;;8.98;100.00;101253.94;1018914;28;20575;-85
2022/10/23 02:46:59;;;;;;;10.70;6.80;;;;;;;9.01;100.00;101257.22;1018568;28;20311;-82
2022/10/23 02:48:00;;;;;;;24.02;6.70;;;;;;;8.95;100.00;101254.34;1017204;29;20303;-82
2022/10/23 02:48:40;;;;;;;15.02;7.63;;;;;;;8.93;100.00;101260.84;1024446;28;20661;-83
2022/10/23 02:49:38;;;;;;;12.60;8.30;;;;;;;9.02;100.00;101258.84;1023642;28;20314;-84
2022/10/23 02:50:32;;;;;;;14.13;9.05;;;;;;;9.06;100.00;101260.13;1018192;28;20315;-84
2022/10/23 02:51:10;;;;;;;15.40;8.52;;;;;;;9.08;100.00;101263.41;1023663;28;20502;-81